createdAt,value
2022-11-24T00:01:31.980Z,1.38
2022-11-24T00:04:06.839Z,1.30
2022-11-24T00:06:36.157Z,1.25
2022-11-24T00:09:05.304Z,1.52
2022-11-24T00:11:35.211Z,1.58
2022-11-24T00:14:03.930Z,1.45
2022-11-24T00:16:38.799Z,1.60
2022-11-24T00:19:14.595Z,1.48
2022-11-24T00:21:43.929Z,1.38
2022-11-24T00:24:11.684Z,1.40
2022-11-24T00:26:38.654Z,1.60
2022-11-24T00:29:09.926Z,1.58
2022-11-24T00:31:42.720Z,1.60
2022-11-24T00:34:16.483Z,1.20
2022-11-24T00:36:43.359Z,1.38
2022-11-24T00:39:19.756Z,1.48
2022-11-24T00:41:50.826Z,1.60
2022-11-24T00:44:17.671Z,1.17
2022-11-24T00:46:44.629Z,0.98
2022-11-24T00:49:11.855Z,1.15
2022-11-24T00:51:38.802Z,1.02
2022-11-24T00:54:13.628Z,1.08
2022-11-24T00:56:46.133Z,1.10
2022-11-24T00:59:15.513Z,1.50
2022-11-24T01:01:42.701Z,1.08
2022-11-24T01:04:12.743Z,0.80
2022-11-24T01:06:39.570Z,1.10
2022-11-24T01:09:11.380Z,0.98
2022-11-24T01:11:56.703Z,0.70
2022-11-24T01:14:27.735Z,0.75
2022-11-24T01:16:55.070Z,0.60
2022-11-24T01:19:22.515Z,0.70
2022-11-24T01:21:49.989Z,0.80
2022-11-24T01:24:19.459Z,0.70
2022-11-24T01:26:48.565Z,0.52
2022-11-24T01:29:17.680Z,0.70
2022-11-24T01:31:44.517Z,1.30
2022-11-24T01:34:14.458Z,1.20
2022-11-24T01:36:42.181Z,1.73
2022-11-24T01:39:11.548Z,1.35
2022-11-24T01:41:38.368Z,1.20
2022-11-24T01:44:28.718Z,1.50
2022-11-24T01:47:05.028Z,1.15
2022-11-24T01:49:48.132Z,1.08
2022-11-24T01:52:22.890Z,0.90
2022-11-24T01:54:59.417Z,1.20
2022-11-24T01:57:36.261Z,1.40
2022-11-24T02:00:11.271Z,1.20
2022-11-24T02:02:38.476Z,1.08
2022-11-24T02:05:31.149Z,1.13
2022-11-24T02:08:01.036Z,1.00
2022-11-24T02:10:27.903Z,2.10
2022-11-24T02:12:57.908Z,1.02
2022-11-24T02:15:25.413Z,1.25
2022-11-24T02:17:52.320Z,0.82
2022-11-24T02:20:19.298Z,1.02
2022-11-24T02:23:25.079Z,1.05
2022-11-24T02:26:10.229Z,1.02
2022-11-24T02:28:40.754Z,0.85
2022-11-24T02:31:07.889Z,0.85
2022-11-24T02:33:35.709Z,0.90
2022-11-24T02:36:02.614Z,1.20
2022-11-24T02:38:37.108Z,0.80
2022-11-24T02:41:08.992Z,0.98
2022-11-24T02:43:45.067Z,1.77
2022-11-24T02:46:14.304Z,0.90
2022-11-24T02:48:43.745Z,2.72
2022-11-24T02:51:13.076Z,1.48
2022-11-24T02:53:39.943Z,0.75
2022-11-24T02:56:09.426Z,0.75
2022-11-24T02:58:40.890Z,0.60
2022-11-24T03:01:07.800Z,0.80
2022-11-24T03:03:34.931Z,0.77
2022-11-24T03:06:01.745Z,0.88
2022-11-24T03:08:33.315Z,0.80
2022-11-24T03:13:28.837Z,0.63
2022-11-24T03:16:00.396Z,0.50
2022-11-24T03:21:01.055Z,0.70
2022-11-24T03:23:27.911Z,0.85
2022-11-24T03:25:54.982Z,0.80
2022-11-24T03:28:21.831Z,0.90
2022-11-24T03:30:53.032Z,0.80
2022-11-24T03:33:22.168Z,0.73
2022-11-24T03:35:51.476Z,0.90
2022-11-24T03:38:18.324Z,0.90
2022-11-24T03:40:45.184Z,0.90
2022-11-24T03:43:12.059Z,0.88
2022-11-24T03:45:46.400Z,0.90
2022-11-24T03:48:23.434Z,0.70
2022-11-24T03:51:00.911Z,1.10
2022-11-24T03:53:31.438Z,0.82
2022-11-24T03:56:00.855Z,1.00
2022-11-24T03:58:28.346Z,1.23
2022-11-24T04:00:56.119Z,1.00
2022-11-24T04:03:23.665Z,1.20
2022-11-24T04:05:50.757Z,0.93
2022-11-24T04:08:17.864Z,1.30
2022-11-24T04:10:44.973Z,1.45
2022-11-24T04:13:17.029Z,0.98
2022-11-24T04:15:49.904Z,1.02
2022-11-24T04:18:19.344Z,0.98
2022-11-24T04:20:51.725Z,1.38
2022-11-24T04:23:19.033Z,1.08
2022-11-24T04:25:50.447Z,1.40
2022-11-24T04:28:22.840Z,1.55
2022-11-24T04:30:49.657Z,1.30
2022-11-24T04:33:16.499Z,1.30
2022-11-24T04:35:45.614Z,1.20
2022-11-24T04:38:12.486Z,1.10
2022-11-24T04:40:39.334Z,1.02
2022-11-24T04:43:09.031Z,1.10
2022-11-24T04:45:40.689Z,1.80
2022-11-24T04:50:37.168Z,1.20
2022-11-24T04:53:04.351Z,1.70
2022-11-24T04:55:35.815Z,1.48
2022-11-24T04:58:02.825Z,1.23
2022-11-24T05:00:32.691Z,1.63
2022-11-24T05:03:00.791Z,1.15
2022-11-24T05:05:27.661Z,1.27
2022-11-24T05:08:00.003Z,1.38
2022-11-24T05:10:36.471Z,1.23
2022-11-24T05:13:14.957Z,1.13
2022-11-24T05:15:45.082Z,1.20
2022-11-24T05:18:18.986Z,1.00
2022-11-24T05:20:49.550Z,1.15
2022-11-24T05:23:17.626Z,0.90
2022-11-24T05:25:47.633Z,0.90
2022-11-24T05:28:16.488Z,1.10
2022-11-24T05:30:43.411Z,1.10
2022-11-24T05:33:24.180Z,1.02
2022-11-24T05:35:51.407Z,0.97
2022-11-24T05:38:22.535Z,1.30
2022-11-24T05:40:52.036Z,1.33
2022-11-24T05:43:34.131Z,1.20
2022-11-24T05:46:04.245Z,1.05
2022-11-24T05:48:31.147Z,1.23
2022-11-24T05:51:03.172Z,1.20
2022-11-24T05:53:33.315Z,1.60
2022-11-24T05:56:04.539Z,1.42
2022-11-24T05:58:33.648Z,1.65
2022-11-24T06:01:08.529Z,1.67
2022-11-24T06:03:35.408Z,2.08
2022-11-24T06:06:03.177Z,1.95
2022-11-24T06:11:36.860Z,1.60
2022-11-24T06:14:08.231Z,1.52
2022-11-24T06:16:40.009Z,2.03
2022-11-24T06:19:14.507Z,2.00
2022-11-24T06:21:41.408Z,1.98
2022-11-24T06:24:10.755Z,1.90
2022-11-24T06:26:39.725Z,2.17
2022-11-24T06:29:06.923Z,1.85
2022-11-24T06:31:34.152Z,1.90
2022-11-24T06:34:01.103Z,2.35
2022-11-24T06:36:28.234Z,2.05
2022-11-24T06:38:55.123Z,2.50
2022-11-24T06:41:26.639Z,2.40
2022-11-24T06:43:53.495Z,3.20
2022-11-24T06:46:20.801Z,4.47
2022-11-24T06:48:54.889Z,4.38
2022-11-24T06:51:21.766Z,3.13
2022-11-24T06:53:54.259Z,2.33
2022-11-24T06:56:23.093Z,2.83
2022-11-24T06:58:54.789Z,2.10
2022-11-24T07:01:27.335Z,2.67
2022-11-24T07:03:55.760Z,1.70
2022-11-24T07:06:24.696Z,2.13
2022-11-24T07:08:52.559Z,1.80
2022-11-24T07:11:23.391Z,2.67
2022-11-24T07:13:59.920Z,2.47
2022-11-24T07:16:28.313Z,1.73
2022-11-24T07:18:56.218Z,1.55
2022-11-24T07:21:27.961Z,2.22
2022-11-24T07:23:56.986Z,1.83
2022-11-24T07:26:25.050Z,1.38
2022-11-24T07:28:52.181Z,1.60
2022-11-24T07:31:22.351Z,1.60
2022-11-24T07:33:54.923Z,1.60
2022-11-24T07:36:24.984Z,2.13
2022-11-24T07:38:52.183Z,2.13
2022-11-24T07:41:20.086Z,1.60
2022-11-24T07:43:50.560Z,1.88
2022-11-24T07:46:19.555Z,1.60
2022-11-24T07:48:47.215Z,1.67
2022-11-24T07:51:18.895Z,3.30
2022-11-24T07:53:46.387Z,3.72
2022-11-24T07:56:13.608Z,4.13
2022-11-24T07:58:40.606Z,3.30
2022-11-24T08:01:17.349Z,2.45
2022-11-24T08:03:45.380Z,2.20
2022-11-24T08:06:26.181Z,1.85
2022-11-24T08:08:59.104Z,2.38
2022-11-24T08:11:26.637Z,1.60
2022-11-24T08:13:53.868Z,3.00
2022-11-24T08:16:23.360Z,2.63
2022-11-24T08:18:53.045Z,2.75
2022-11-24T08:21:20.078Z,2.00
2022-11-24T08:23:47.307Z,1.98
2022-11-24T08:26:19.327Z,2.40
2022-11-24T08:28:47.985Z,2.65
2022-11-24T08:31:18.836Z,2.67
2022-11-24T08:33:48.990Z,2.70
2022-11-24T08:36:18.550Z,2.65
2022-11-24T08:39:06.154Z,2.70
2022-11-24T08:41:35.619Z,2.13
2022-11-24T08:44:02.501Z,1.95
2022-11-24T08:46:31.972Z,1.67
2022-11-24T08:49:01.235Z,1.75
2022-11-24T08:51:28.465Z,1.63
2022-11-24T08:54:01.315Z,1.88
2022-11-24T08:56:33.052Z,1.15
2022-11-24T08:59:03.253Z,1.10
2022-11-24T09:01:30.396Z,1.42
2022-11-24T09:03:57.834Z,1.10
2022-11-24T09:06:30.885Z,1.38
2022-11-24T09:08:58.963Z,0.98
2022-11-24T09:11:27.334Z,1.23
2022-11-24T09:13:55.078Z,1.08
2022-11-24T09:16:26.413Z,1.10
2022-11-24T09:19:16.089Z,0.95
2022-11-24T09:21:43.019Z,1.10
2022-11-24T09:24:10.834Z,1.30
2022-11-24T09:26:44.530Z,0.90
2022-11-24T09:29:16.417Z,1.10
2022-11-24T09:31:43.422Z,1.10
2022-11-24T09:34:15.524Z,1.42
2022-11-24T09:36:45.287Z,1.27
2022-11-24T09:39:12.355Z,1.15
2022-11-24T09:42:14.193Z,0.95
2022-11-24T09:45:22.794Z,0.90
2022-11-24T09:48:35.142Z,0.80
2022-11-24T09:51:04.758Z,0.90
2022-11-24T09:53:51.928Z,1.30
2022-11-24T09:56:28.883Z,0.90
2022-11-24T09:59:18.544Z,1.40
2022-11-24T10:01:54.448Z,1.55
2022-11-24T10:04:22.893Z,1.08
2022-11-24T10:07:21.351Z,1.30
2022-11-24T10:10:24.779Z,0.75
2022-11-24T10:13:30.128Z,0.80
2022-11-24T10:16:19.600Z,0.80
2022-11-24T10:19:22.025Z,0.77
2022-11-24T10:22:21.106Z,0.85
2022-11-24T10:25:12.945Z,0.85
2022-11-24T10:30:33.071Z,0.50
2022-11-24T10:33:23.229Z,0.80
2022-11-24T10:36:03.576Z,0.82
2022-11-24T10:38:38.980Z,0.70
2022-11-24T10:41:48.048Z,0.80
2022-11-24T10:44:15.520Z,0.70
2022-11-24T10:46:42.578Z,1.10
2022-11-24T10:49:24.191Z,0.85
2022-11-24T10:52:16.060Z,0.60
2022-11-24T10:57:30.959Z,0.50
2022-11-24T10:59:58.023Z,0.70
2022-11-24T11:02:40.564Z,1.10
2022-11-24T11:06:05.665Z,0.80
2022-11-24T11:08:33.023Z,1.20
2022-11-24T11:11:30.328Z,1.27
2022-11-24T11:14:03.948Z,1.10
2022-11-24T11:16:53.849Z,0.85
2022-11-24T11:20:01.561Z,0.80
2022-11-24T11:22:38.480Z,1.00
2022-11-24T11:25:11.591Z,1.23
2022-11-24T11:27:40.040Z,1.20
2022-11-24T11:36:15.994Z,1.17
2022-11-24T11:38:44.564Z,0.95
2022-11-24T11:41:21.919Z,1.02
2022-11-24T11:43:58.009Z,1.05
2022-11-24T11:46:29.057Z,0.80
2022-11-24T11:48:59.043Z,1.40
2022-11-24T11:51:42.100Z,0.93
2022-11-24T11:54:30.996Z,1.30
2022-11-24T11:57:42.212Z,1.10
2022-11-24T12:00:19.279Z,1.03
2022-11-24T12:03:16.537Z,1.23
2022-11-24T12:06:01.417Z,1.00
2022-11-24T12:09:11.589Z,0.77
2022-11-24T12:12:18.827Z,1.20
2022-11-24T12:15:37.158Z,0.77
2022-11-24T12:18:59.739Z,1.00
2022-11-24T12:21:55.025Z,0.90
2022-11-24T12:24:50.191Z,0.88
2022-11-24T12:27:47.355Z,1.13
2022-11-24T12:30:21.588Z,1.30
2022-11-24T12:33:00.381Z,1.20
2022-11-24T12:35:52.665Z,1.40
2022-11-24T12:38:44.948Z,1.27
2022-11-24T12:41:43.022Z,1.00
2022-11-24T12:44:55.213Z,0.90
2022-11-24T12:53:06.075Z,0.80
2022-11-24T12:55:36.086Z,1.05
2022-11-24T12:58:28.726Z,1.02
2022-11-24T13:01:40.831Z,0.93
2022-11-24T13:04:35.912Z,0.93
2022-11-24T13:07:24.617Z,0.80
2022-11-24T13:10:53.624Z,1.40
2022-11-24T13:13:18.962Z,1.10
2022-11-24T13:16:34.801Z,1.02
2022-11-24T13:18:55.890Z,1.00
2022-11-24T13:21:59.757Z,0.82
2022-11-24T13:24:30.905Z,1.42
2022-11-24T13:27:16.383Z,1.02
2022-11-24T13:29:53.599Z,1.42
2022-11-24T13:32:23.034Z,1.65
2022-11-24T13:34:57.352Z,0.82
2022-11-24T13:37:34.508Z,1.20
2022-11-24T13:40:11.762Z,0.93
2022-11-24T13:43:02.529Z,0.70
2022-11-24T13:45:41.715Z,1.00
2022-11-24T13:48:21.165Z,0.90
2022-11-24T13:50:51.822Z,0.73
2022-11-24T13:53:37.516Z,0.70
2022-11-24T14:02:46.125Z,1.13
2022-11-24T14:05:17.743Z,1.02
2022-11-24T14:10:38.201Z,0.60
2022-11-24T14:13:25.939Z,1.00
2022-11-24T14:16:18.789Z,0.75
2022-11-24T14:18:56.379Z,1.00
2022-11-24T14:21:28.533Z,1.05
2022-11-24T14:24:12.091Z,0.88
2022-11-24T14:26:40.992Z,1.27
2022-11-24T14:29:17.274Z,1.00
2022-11-24T14:31:58.422Z,1.05
2022-11-24T14:34:31.683Z,1.05
2022-11-24T14:37:02.029Z,1.27
2022-11-24T14:39:31.409Z,1.10
2022-11-24T14:42:05.084Z,1.10
2022-11-24T14:44:40.372Z,1.33
2022-11-24T14:47:31.650Z,1.30
2022-11-24T14:53:00.748Z,0.73
2022-11-24T14:55:31.021Z,1.30
2022-11-24T14:57:59.476Z,1.20
2022-11-24T15:00:31.743Z,1.13
2022-11-24T15:03:01.805Z,1.40
2022-11-24T15:05:58.651Z,1.80
2022-11-24T15:08:37.489Z,1.80
2022-11-24T15:11:06.900Z,1.70
2022-11-24T15:13:38.226Z,2.17
2022-11-24T15:16:19.326Z,2.05
2022-11-24T15:19:01.535Z,1.80
2022-11-24T15:21:39.741Z,2.95
2022-11-24T15:24:20.335Z,2.97
2022-11-24T15:26:49.339Z,2.50
2022-11-24T15:29:16.245Z,3.15
2022-11-24T15:31:51.011Z,2.92
2022-11-24T15:34:24.230Z,2.60
2022-11-24T15:36:53.637Z,2.65
2022-11-24T15:39:20.481Z,2.78
2022-11-24T15:41:47.372Z,2.15
2022-11-24T15:44:17.267Z,2.17
2022-11-24T15:46:44.257Z,2.60
2022-11-24T15:49:11.164Z,3.40
2022-11-24T15:51:43.825Z,3.70
2022-11-24T15:54:17.779Z,3.13
2022-11-24T15:56:44.762Z,2.50
2022-11-24T15:59:20.305Z,2.50
2022-11-24T16:01:50.809Z,3.15
2022-11-24T16:04:22.658Z,3.10
2022-11-24T16:09:50.694Z,3.95
2022-11-24T16:12:17.612Z,4.43
2022-11-24T16:14:44.493Z,4.75
2022-11-24T16:17:11.398Z,5.65
2022-11-24T16:19:41.822Z,4.88
2022-11-24T16:22:09.047Z,4.27
2022-11-24T16:24:36.469Z,5.20
2022-11-24T16:27:06.702Z,4.65
2022-11-24T16:29:38.588Z,4.80
2022-11-24T16:32:08.368Z,4.80
2022-11-24T16:34:35.425Z,4.90
2022-11-24T16:37:04.478Z,6.10
2022-11-24T16:39:33.408Z,6.03
2022-11-24T16:42:00.220Z,5.18
2022-11-24T16:44:27.114Z,5.03
2022-11-24T16:46:56.944Z,5.28
2022-11-24T16:49:29.362Z,5.10
2022-11-24T16:51:58.729Z,5.15
2022-11-24T16:54:25.818Z,5.32
2022-11-24T16:56:55.174Z,5.60
2022-11-24T16:59:24.543Z,5.20
2022-11-24T17:01:51.592Z,6.35
2022-11-24T17:04:18.591Z,7.18
2022-11-24T17:06:45.513Z,7.97
2022-11-24T17:09:12.445Z,7.55
2022-11-24T17:11:39.389Z,6.38
2022-11-24T17:14:10.971Z,6.47
2022-11-24T17:19:05.731Z,10.35
2022-11-24T17:21:35.477Z,11.77
2022-11-24T17:24:05.872Z,12.05
2022-11-24T17:26:33.767Z,10.95
2022-11-24T17:29:00.884Z,13.05
2022-11-24T17:31:35.791Z,14.77
2022-11-24T17:34:06.325Z,13.48
2022-11-24T17:36:37.791Z,13.63
2022-11-24T17:39:07.587Z,13.43
2022-11-24T17:41:39.594Z,13.13
2022-11-24T17:44:08.586Z,11.82
2022-11-24T17:46:39.088Z,11.18
2022-11-24T17:49:13.005Z,10.85
2022-11-24T17:51:41.269Z,10.02
2022-11-24T17:54:39.116Z,10.30
2022-11-24T17:57:01.208Z,8.30
2022-11-24T17:59:28.097Z,6.82
2022-11-24T18:01:54.974Z,6.22
2022-11-24T18:04:26.860Z,7.00
2022-11-24T18:06:58.906Z,6.47
2022-11-24T18:09:28.055Z,6.38
2022-11-24T18:11:55.023Z,5.10
2022-11-24T18:14:21.920Z,4.65
2022-11-24T18:16:51.335Z,5.57
2022-11-24T18:19:22.756Z,6.03
2022-11-24T18:21:52.126Z,5.85
2022-11-24T18:24:23.910Z,5.63
2022-11-24T18:26:51.167Z,6.07
2022-11-24T18:29:18.124Z,6.30
2022-11-24T18:31:47.310Z,5.50
2022-11-24T18:34:14.221Z,4.07
2022-11-24T18:36:41.254Z,3.83
2022-11-24T18:39:09.956Z,4.15
2022-11-24T18:41:36.894Z,4.10
2022-11-24T18:44:07.911Z,4.28
2022-11-24T18:46:35.305Z,4.05
2022-11-24T18:49:02.370Z,4.18
2022-11-24T18:51:30.064Z,3.95
2022-11-24T18:53:58.230Z,5.28
2022-11-24T18:56:26.470Z,5.88
2022-11-24T18:58:55.412Z,6.05
2022-11-24T19:01:28.373Z,6.50
2022-11-24T19:03:58.509Z,6.40
2022-11-24T19:06:32.657Z,6.55
2022-11-24T19:09:08.369Z,5.18
2022-11-24T19:11:42.086Z,6.53
2022-11-24T19:14:17.471Z,6.15
2022-11-24T19:16:49.750Z,4.35
2022-11-24T19:19:17.365Z,5.47
2022-11-24T19:21:44.405Z,5.93
2022-11-24T19:24:14.331Z,6.28
2022-11-24T19:26:43.750Z,7.07
2022-11-24T19:29:10.818Z,5.57
2022-11-24T19:31:41.214Z,4.95
2022-11-24T19:34:11.491Z,5.70
2022-11-24T19:36:40.500Z,4.95
2022-11-24T19:39:12.219Z,4.38
2022-11-24T19:41:39.106Z,4.25
2022-11-24T19:44:06.055Z,3.60
2022-11-24T19:46:33.514Z,4.20
2022-11-24T19:49:01.955Z,3.67
2022-11-24T19:51:38.528Z,4.68
2022-11-24T19:54:13.248Z,6.65
2022-11-24T19:56:41.403Z,6.35
2022-11-24T19:59:13.190Z,6.05
2022-11-24T20:01:43.252Z,5.35
2022-11-24T20:04:13.692Z,5.22
2022-11-24T20:06:45.581Z,5.45
2022-11-24T20:09:15.936Z,5.32
2022-11-24T20:11:43.015Z,4.82
2022-11-24T20:14:19.032Z,4.85
2022-11-24T20:16:50.953Z,6.18
2022-11-24T20:19:18.720Z,6.57
2022-11-24T20:21:47.900Z,7.25
2022-11-24T20:24:17.468Z,5.45
2022-11-24T20:26:49.197Z,4.75
2022-11-24T20:29:19.263Z,3.63
2022-11-24T20:31:50.062Z,4.88
2022-11-24T20:34:20.798Z,4.78
2022-11-24T20:36:48.620Z,5.17
2022-11-24T20:39:23.902Z,5.35
2022-11-24T20:41:54.779Z,5.47
2022-11-24T20:44:22.713Z,5.25
2022-11-24T20:46:50.129Z,4.57
2022-11-24T20:49:20.129Z,5.25
2022-11-24T20:51:47.810Z,5.30
2022-11-24T20:54:17.829Z,5.55
2022-11-24T20:56:46.530Z,6.45
2022-11-24T20:59:21.584Z,4.75
2022-11-24T21:01:52.535Z,5.60
2022-11-24T21:04:29.019Z,4.57
2022-11-24T21:06:56.494Z,4.25
2022-11-24T21:09:24.743Z,4.35
2022-11-24T21:11:51.631Z,5.20
2022-11-24T21:14:21.063Z,5.25
2022-11-24T21:16:55.011Z,5.93
2022-11-24T21:19:26.851Z,4.65
2022-11-24T21:21:54.098Z,5.45
2022-11-24T21:24:23.486Z,5.45
2022-11-24T21:26:53.227Z,5.55
2022-11-24T21:29:23.354Z,5.03
2022-11-24T21:31:50.688Z,5.00
2022-11-24T21:34:20.839Z,4.75
2022-11-24T21:36:50.375Z,5.15
2022-11-24T21:39:17.647Z,5.18
2022-11-24T21:41:44.696Z,4.88
2022-11-24T21:44:13.469Z,5.30
2022-11-24T21:46:46.119Z,5.63
2022-11-24T21:49:18.856Z,5.68
2022-11-24T21:51:48.097Z,4.75
2022-11-24T21:54:14.971Z,4.75
2022-11-24T21:56:41.892Z,5.45
2022-11-24T21:59:15.868Z,4.57
2022-11-24T22:01:42.884Z,5.25
2022-11-24T22:04:12.345Z,5.00
2022-11-24T22:06:41.680Z,4.85
2022-11-24T22:09:16.404Z,5.53
2022-11-24T22:11:52.648Z,4.07
2022-11-24T22:14:19.573Z,4.40
2022-11-24T22:16:51.197Z,4.38
2022-11-24T22:21:50.748Z,2.67
2022-11-24T22:24:19.035Z,3.28
2022-11-24T22:26:49.439Z,3.45
2022-11-24T22:29:16.343Z,3.25
2022-11-24T22:31:46.317Z,4.45
2022-11-24T22:34:13.202Z,4.75
2022-11-24T22:36:40.066Z,4.05
2022-11-24T22:39:11.851Z,4.45
2022-11-24T22:41:38.759Z,3.55
2022-11-24T22:44:06.028Z,3.92
2022-11-24T22:46:33.172Z,4.43
2022-11-24T22:49:01.744Z,4.63
2022-11-24T22:51:34.271Z,4.45
2022-11-24T22:54:03.840Z,3.97
2022-11-24T22:56:32.499Z,4.78
2022-11-24T22:59:01.171Z,4.35
2022-11-24T23:01:33.533Z,4.32
2022-11-24T23:04:00.821Z,4.05
2022-11-24T23:06:30.420Z,3.22
2022-11-24T23:09:02.147Z,3.05
2022-11-24T23:11:37.487Z,3.35
2022-11-24T23:14:16.807Z,3.67
2022-11-24T23:16:46.391Z,3.70
2022-11-24T23:19:13.290Z,3.83
2022-11-24T23:21:42.648Z,3.25
2022-11-24T23:24:10.941Z,3.78
2022-11-24T23:26:40.497Z,3.22
2022-11-24T23:29:10.384Z,3.20
2022-11-24T23:31:40.412Z,3.35
2022-11-24T23:34:12.327Z,3.00
2022-11-24T23:36:41.903Z,4.00
2022-11-24T23:39:13.356Z,3.30
2022-11-24T23:41:40.584Z,2.92
2022-11-24T23:44:08.029Z,2.90
2022-11-24T23:46:34.917Z,2.92
2022-11-24T23:49:01.859Z,2.70
2022-11-24T23:51:35.962Z,2.65
2022-11-24T23:54:10.394Z,2.60
2022-11-24T23:56:37.530Z,2.83
2022-11-24T23:59:05.130Z,2.70
